createdAt,value
2023-02-24T00:01:51.674Z,63.20
2023-02-24T00:04:21.520Z,63.40
2023-02-24T00:06:50.660Z,62.80
2023-02-24T00:09:20.616Z,63.30
2023-02-24T00:11:53.894Z,63.31
2023-02-24T00:14:22.157Z,63.22
2023-02-24T00:16:50.000Z,63.23
2023-02-24T00:19:19.988Z,63.25
2023-02-24T00:21:48.172Z,62.90
2023-02-24T00:24:17.243Z,62.71
2023-02-24T00:26:45.661Z,62.87
2023-02-24T00:29:14.497Z,62.56
2023-02-24T00:31:43.089Z,62.87
2023-02-24T00:34:15.071Z,62.55
2023-02-24T00:36:42.943Z,62.34
2023-02-24T00:39:11.131Z,62.06
2023-02-24T00:41:42.291Z,62.50
2023-02-24T00:44:12.002Z,61.79
2023-02-24T00:46:41.638Z,62.45
2023-02-24T00:49:13.206Z,61.86
2023-02-24T00:51:43.190Z,62.84
2023-02-24T00:54:14.861Z,61.99
2023-02-24T00:56:45.286Z,62.31
2023-02-24T00:59:14.567Z,61.92
2023-02-24T01:01:44.297Z,62.07
2023-02-24T01:04:13.272Z,61.48
2023-02-24T01:06:43.525Z,61.23
2023-02-24T01:09:13.684Z,61.58
2023-02-24T01:11:59.310Z,61.98
2023-02-24T01:14:31.051Z,61.94
2023-02-24T01:16:59.197Z,61.48
2023-02-24T01:19:31.501Z,61.71
2023-02-24T01:22:01.081Z,61.89
2023-02-24T01:24:30.267Z,61.52
2023-02-24T01:26:58.218Z,61.54
2023-02-24T01:29:26.260Z,61.63
2023-02-24T01:31:58.120Z,61.90
2023-02-24T01:34:26.909Z,61.65
2023-02-24T01:36:55.354Z,61.28
2023-02-24T01:39:23.200Z,61.83
2023-02-24T01:41:53.019Z,61.35
2023-02-24T01:44:59.286Z,61.27
2023-02-24T01:47:31.229Z,61.07
2023-02-24T01:49:59.176Z,60.77
2023-02-24T01:52:31.442Z,61.78
2023-02-24T01:55:05.103Z,61.02
2023-02-24T01:57:36.790Z,61.15
2023-02-24T02:00:30.660Z,61.80
2023-02-24T02:03:01.861Z,61.69
2023-02-24T02:05:29.727Z,60.99
2023-02-24T02:07:58.349Z,61.68
2023-02-24T02:10:28.589Z,60.67
2023-02-24T02:12:56.945Z,60.07
2023-02-24T02:15:24.926Z,61.33
2023-02-24T02:18:03.183Z,61.24
2023-02-24T02:21:07.076Z,60.36
2023-02-24T02:23:57.943Z,60.75
2023-02-24T02:26:57.825Z,60.35
2023-02-24T02:29:45.286Z,60.30
2023-02-24T02:32:31.509Z,60.60
2023-02-24T02:35:09.841Z,60.83
2023-02-24T02:37:49.730Z,61.29
2023-02-24T02:40:26.695Z,61.50
2023-02-24T02:42:59.738Z,61.22
2023-02-24T02:45:32.950Z,60.94
2023-02-24T02:48:04.217Z,60.86
2023-02-24T02:50:43.293Z,61.03
2023-02-24T02:53:15.512Z,60.68
2023-02-24T02:55:49.648Z,60.85
2023-02-24T02:58:23.580Z,61.46
2023-02-24T03:01:02.531Z,60.34
2023-02-24T03:03:33.442Z,61.13
2023-02-24T03:06:06.376Z,60.41
2023-02-24T03:08:38.918Z,61.14
2023-02-24T03:11:12.529Z,60.89
2023-02-24T03:13:44.212Z,60.83
2023-02-24T03:16:14.635Z,60.36
2023-02-24T03:18:50.944Z,61.34
2023-02-24T03:21:29.648Z,61.01
2023-02-24T03:23:57.613Z,60.98
2023-02-24T03:26:28.368Z,61.47
2023-02-24T03:29:01.719Z,61.57
2023-02-24T03:31:34.527Z,60.71
2023-02-24T03:34:10.251Z,60.46
2023-02-24T03:36:39.857Z,60.93
2023-02-24T03:39:11.407Z,60.70
2023-02-24T03:41:45.156Z,61.77
2023-02-24T03:44:14.773Z,61.04
2023-02-24T03:46:43.065Z,61.38
2023-02-24T03:49:14.305Z,60.86
2023-02-24T03:51:45.103Z,60.43
2023-02-24T03:54:30.532Z,61.69
2023-02-24T03:57:14.161Z,61.37
2023-02-24T03:59:52.841Z,60.87
2023-02-24T04:02:23.507Z,60.88
2023-02-24T04:04:56.194Z,60.47
2023-02-24T04:07:37.748Z,60.54
2023-02-24T04:10:12.719Z,60.74
2023-02-24T04:12:46.999Z,60.44
2023-02-24T04:15:21.749Z,61.03
2023-02-24T04:17:53.202Z,60.77
2023-02-24T04:20:23.687Z,60.48
2023-02-24T04:22:59.475Z,60.24
2023-02-24T04:25:28.969Z,60.56
2023-02-24T04:28:01.880Z,60.99
2023-02-24T04:30:36.143Z,60.58
2023-02-24T04:33:04.171Z,61.00
2023-02-24T04:35:33.046Z,60.78
2023-02-24T04:38:02.251Z,60.44
2023-02-24T04:40:30.037Z,60.82
2023-02-24T04:42:57.936Z,60.31
2023-02-24T04:45:27.804Z,60.42
2023-02-24T04:48:00.883Z,60.82
2023-02-24T04:50:32.835Z,60.68
2023-02-24T04:53:06.668Z,60.64
2023-02-24T04:55:40.000Z,60.58
2023-02-24T04:58:08.584Z,60.16
2023-02-24T05:00:36.276Z,60.48
2023-02-24T05:03:05.924Z,61.12
2023-02-24T05:05:34.275Z,61.31
2023-02-24T05:08:06.413Z,60.27
2023-02-24T05:10:38.843Z,61.03
2023-02-24T05:13:09.031Z,60.36
2023-02-24T05:15:41.704Z,60.96
2023-02-24T05:18:14.107Z,61.35
2023-02-24T05:21:02.159Z,61.51
2023-02-24T05:23:34.411Z,61.17
2023-02-24T05:26:03.308Z,60.71
2023-02-24T05:28:31.915Z,61.66
2023-02-24T05:31:08.437Z,60.58
2023-02-24T05:33:37.710Z,60.75
2023-02-24T05:36:08.210Z,60.18
2023-02-24T05:38:38.243Z,60.93
2023-02-24T05:41:08.265Z,60.81
2023-02-24T05:43:39.251Z,60.83
2023-02-24T05:46:07.268Z,61.00
2023-02-24T05:48:35.342Z,61.48
2023-02-24T05:51:05.247Z,61.53
2023-02-24T05:53:33.560Z,61.04
2023-02-24T05:56:05.565Z,60.86
2023-02-24T05:58:33.340Z,61.41
2023-02-24T06:01:05.970Z,60.62
2023-02-24T06:03:35.580Z,60.62
2023-02-24T06:06:08.936Z,61.34
2023-02-24T06:08:42.296Z,60.68
2023-02-24T06:11:12.962Z,60.85
2023-02-24T06:13:40.698Z,60.99
2023-02-24T06:16:12.811Z,61.50
2023-02-24T06:18:40.837Z,61.01
2023-02-24T06:21:09.259Z,61.13
2023-02-24T06:23:36.951Z,60.94
2023-02-24T06:26:05.581Z,60.59
2023-02-24T06:28:34.643Z,61.03
2023-02-24T06:31:06.811Z,61.15
2023-02-24T06:33:35.970Z,60.56
2023-02-24T06:36:05.096Z,60.79
2023-02-24T06:38:33.250Z,60.59
2023-02-24T06:41:04.095Z,60.82
2023-02-24T06:43:31.852Z,60.83
2023-02-24T06:46:02.981Z,60.26
2023-02-24T06:48:30.718Z,60.82
2023-02-24T06:50:58.429Z,61.11
2023-02-24T06:53:26.764Z,61.06
2023-02-24T06:55:55.090Z,60.77
2023-02-24T06:58:24.306Z,60.89
2023-02-24T07:00:57.756Z,60.91
2023-02-24T07:03:39.568Z,61.06
2023-02-24T07:06:22.059Z,60.75
2023-02-24T07:08:49.921Z,60.56
2023-02-24T07:11:19.313Z,61.11
2023-02-24T07:13:48.589Z,60.87
2023-02-24T07:16:17.963Z,60.73
2023-02-24T07:18:48.697Z,60.49
2023-02-24T07:21:20.625Z,60.73
2023-02-24T07:23:49.694Z,60.59
2023-02-24T07:26:19.850Z,60.75
2023-02-24T07:28:49.934Z,60.63
2023-02-24T07:31:21.142Z,60.35
2023-02-24T07:33:55.612Z,60.44
2023-02-24T07:36:24.106Z,61.02
2023-02-24T07:38:54.294Z,59.95
2023-02-24T07:41:23.924Z,60.76
2023-02-24T07:43:51.983Z,60.07
2023-02-24T07:46:24.523Z,60.27
2023-02-24T07:48:54.887Z,59.87
2023-02-24T07:51:25.511Z,59.87
2023-02-24T07:53:56.743Z,60.11
2023-02-24T07:56:27.091Z,60.37
2023-02-24T07:58:59.291Z,60.20
2023-02-24T08:01:28.515Z,60.74
2023-02-24T08:04:01.410Z,60.84
2023-02-24T08:06:37.861Z,60.63
2023-02-24T08:09:18.034Z,60.01
2023-02-24T08:11:49.189Z,60.28
2023-02-24T08:14:16.998Z,59.65
2023-02-24T08:16:46.226Z,60.06
2023-02-24T08:19:20.906Z,60.80
2023-02-24T08:21:52.647Z,60.00
2023-02-24T08:24:25.370Z,60.45
2023-02-24T08:27:04.332Z,61.04
2023-02-24T08:29:40.106Z,59.96
2023-02-24T08:32:09.438Z,60.39
2023-02-24T08:34:39.462Z,60.44
2023-02-24T08:37:07.199Z,60.71
2023-02-24T08:39:36.498Z,59.46
2023-02-24T08:42:04.926Z,60.28
2023-02-24T08:44:34.988Z,60.07
2023-02-24T08:47:05.310Z,60.14
2023-02-24T08:49:33.329Z,59.66
2023-02-24T08:52:02.580Z,60.22
2023-02-24T08:54:32.144Z,59.71
2023-02-24T08:57:08.249Z,59.03
2023-02-24T08:59:43.574Z,58.66
2023-02-24T09:02:24.356Z,58.00
2023-02-24T09:04:54.644Z,57.47
2023-02-24T09:07:26.144Z,56.64
2023-02-24T09:09:56.354Z,57.49
2023-02-24T09:12:25.863Z,58.19
2023-02-24T09:14:56.492Z,57.84
2023-02-24T09:17:49.801Z,58.42
2023-02-24T09:20:51.547Z,58.70
2023-02-24T09:23:29.914Z,58.55
2023-02-24T09:25:57.790Z,58.55
2023-02-24T09:28:26.706Z,59.15
2023-02-24T09:30:56.108Z,58.45
2023-02-24T09:33:29.322Z,58.30
2023-02-24T09:36:09.716Z,59.44
2023-02-24T09:38:57.715Z,58.97
2023-02-24T09:41:33.054Z,59.37
2023-02-24T09:44:07.399Z,59.07
2023-02-24T09:46:53.877Z,58.62
2023-02-24T09:49:25.185Z,59.01
2023-02-24T09:52:00.569Z,59.47
2023-02-24T09:54:35.370Z,59.14
2023-02-24T09:57:16.764Z,59.13
2023-02-24T10:00:21.975Z,59.63
2023-02-24T10:03:00.230Z,59.50
2023-02-24T10:05:38.309Z,59.39
2023-02-24T10:08:14.560Z,59.14
2023-02-24T10:11:00.732Z,59.38
2023-02-24T10:13:33.294Z,59.36
2023-02-24T10:16:07.035Z,59.25
2023-02-24T10:18:42.665Z,59.41
2023-02-24T10:21:30.491Z,60.11
2023-02-24T10:24:09.160Z,59.35
2023-02-24T10:27:00.337Z,59.33
2023-02-24T10:29:43.369Z,59.91
2023-02-24T10:32:23.821Z,59.63
2023-02-24T10:34:52.075Z,59.68
2023-02-24T10:37:28.141Z,59.20
2023-02-24T10:39:58.491Z,59.63
2023-02-24T10:42:31.833Z,59.72
2023-02-24T10:45:17.274Z,59.82
2023-02-24T10:47:56.279Z,59.58
2023-02-24T10:50:27.698Z,59.82
2023-02-24T10:53:34.410Z,59.37
2023-02-24T10:56:27.591Z,59.68
2023-02-24T10:59:18.756Z,60.31
2023-02-24T11:01:55.122Z,60.02
2023-02-24T11:04:43.826Z,60.17
2023-02-24T11:07:24.522Z,60.24
2023-02-24T11:10:11.261Z,59.95
2023-02-24T11:13:10.594Z,60.75
2023-02-24T11:16:03.092Z,59.59
2023-02-24T11:18:32.362Z,60.88
2023-02-24T11:21:03.281Z,60.04
2023-02-24T11:23:36.033Z,60.31
2023-02-24T11:26:07.741Z,60.17
2023-02-24T11:28:50.760Z,60.47
2023-02-24T11:31:36.242Z,60.75
2023-02-24T11:34:11.027Z,61.10
2023-02-24T11:36:54.441Z,61.00
2023-02-24T11:39:41.264Z,61.32
2023-02-24T11:42:14.849Z,61.44
2023-02-24T11:44:52.200Z,60.89
2023-02-24T11:47:26.796Z,61.63
2023-02-24T11:50:05.015Z,61.66
2023-02-24T11:52:39.102Z,61.88
2023-02-24T11:55:20.993Z,61.48
2023-02-24T11:57:53.700Z,62.30
2023-02-24T12:00:24.759Z,61.98
2023-02-24T12:03:02.292Z,61.50
2023-02-24T12:05:36.953Z,62.33
2023-02-24T12:08:10.790Z,62.79
2023-02-24T12:10:47.330Z,62.44
2023-02-24T12:13:25.233Z,62.85
2023-02-24T12:15:59.941Z,62.93
2023-02-24T12:18:34.984Z,62.76
2023-02-24T12:21:06.782Z,62.75
2023-02-24T12:23:37.530Z,63.06
2023-02-24T12:26:17.893Z,63.03
2023-02-24T12:29:01.398Z,63.07
2023-02-24T12:31:38.103Z,63.01
2023-02-24T12:34:14.453Z,63.14
2023-02-24T12:37:16.673Z,64.43
2023-02-24T12:39:54.083Z,64.30
2023-02-24T12:42:31.658Z,64.70
2023-02-24T12:45:05.016Z,64.97
2023-02-24T12:47:43.875Z,65.38
2023-02-24T12:50:24.310Z,65.14
2023-02-24T12:53:02.061Z,65.57
2023-02-24T12:55:41.062Z,65.46
2023-02-24T12:58:13.355Z,65.47
2023-02-24T13:00:54.367Z,65.74
2023-02-24T13:03:58.865Z,65.94
2023-02-24T13:06:39.253Z,65.76
2023-02-24T13:09:13.107Z,65.58
2023-02-24T13:11:47.170Z,66.25
2023-02-24T13:14:22.288Z,66.22
2023-02-24T13:16:50.127Z,66.04
2023-02-24T13:19:29.330Z,66.34
2023-02-24T13:22:09.745Z,66.36
2023-02-24T13:24:38.808Z,66.51
2023-02-24T13:27:09.216Z,66.31
2023-02-24T13:29:47.695Z,66.54
2023-02-24T13:32:33.105Z,66.73
2023-02-24T13:35:03.602Z,67.02
2023-02-24T13:37:36.416Z,66.38
2023-02-24T13:40:26.647Z,67.41
2023-02-24T13:43:00.716Z,67.18
2023-02-24T13:45:30.160Z,66.99
2023-02-24T13:48:28.560Z,67.18
2023-02-24T13:51:10.960Z,67.95
2023-02-24T13:54:02.506Z,67.68
2023-02-24T13:56:43.057Z,67.59
2023-02-24T13:59:43.551Z,68.30
2023-02-24T14:02:16.521Z,68.21
2023-02-24T14:04:50.188Z,68.01
2023-02-24T14:07:22.737Z,68.23
2023-02-24T14:09:56.240Z,68.01
2023-02-24T14:12:27.686Z,67.96
2023-02-24T14:14:55.957Z,67.81
2023-02-24T14:17:28.404Z,67.94
2023-02-24T14:19:57.748Z,68.21
2023-02-24T14:22:25.467Z,68.12
2023-02-24T14:25:03.475Z,68.85
2023-02-24T14:27:31.585Z,68.26
2023-02-24T14:30:00.371Z,68.35
2023-02-24T14:32:29.350Z,68.99
2023-02-24T14:34:57.350Z,68.82
2023-02-24T14:37:27.571Z,68.99
2023-02-24T14:39:56.751Z,68.59
2023-02-24T14:42:26.633Z,68.97
2023-02-24T14:44:55.977Z,69.34
2023-02-24T14:47:26.062Z,69.85
2023-02-24T14:49:56.702Z,69.13
2023-02-24T14:52:33.076Z,69.59
2023-02-24T14:55:06.092Z,68.96
2023-02-24T14:57:41.360Z,69.00
2023-02-24T15:00:17.432Z,69.60
2023-02-24T15:02:50.478Z,70.06
2023-02-24T15:05:18.387Z,69.14
2023-02-24T15:07:46.751Z,69.47
2023-02-24T15:10:23.446Z,69.17
2023-02-24T15:12:55.332Z,70.00
2023-02-24T15:15:27.087Z,69.22
2023-02-24T15:17:57.865Z,70.13
2023-02-24T15:20:31.246Z,70.01
2023-02-24T15:22:59.604Z,70.18
2023-02-24T15:25:41.809Z,70.12
2023-02-24T15:28:25.743Z,70.03
2023-02-24T15:31:01.390Z,69.65
2023-02-24T15:33:35.250Z,69.66
2023-02-24T15:36:09.396Z,69.64
2023-02-24T15:38:39.534Z,70.29
2023-02-24T15:41:08.796Z,70.23
2023-02-24T15:43:39.631Z,70.07
2023-02-24T15:46:21.957Z,70.34
2023-02-24T15:48:51.760Z,70.80
2023-02-24T15:51:28.893Z,71.05
2023-02-24T15:53:56.704Z,71.07
2023-02-24T15:56:24.660Z,71.08
2023-02-24T15:58:53.935Z,71.11
2023-02-24T16:01:21.798Z,71.24
2023-02-24T16:03:49.740Z,70.09
2023-02-24T16:06:21.243Z,70.32
2023-02-24T16:08:52.057Z,70.11
2023-02-24T16:11:24.247Z,70.39
2023-02-24T16:13:55.359Z,70.05
2023-02-24T16:16:24.991Z,69.95
2023-02-24T16:18:52.875Z,69.79
2023-02-24T16:21:20.718Z,69.95
2023-02-24T16:23:48.717Z,70.29
2023-02-24T16:26:18.395Z,69.99
2023-02-24T16:28:52.723Z,69.74
2023-02-24T16:31:22.201Z,69.57
2023-02-24T16:33:54.825Z,70.20
2023-02-24T16:36:24.789Z,69.91
2023-02-24T16:38:52.869Z,69.66
2023-02-24T16:41:20.722Z,69.82
2023-02-24T16:43:48.496Z,69.00
2023-02-24T16:46:19.341Z,68.89
2023-02-24T16:48:51.070Z,69.41
2023-02-24T16:51:18.861Z,68.79
2023-02-24T16:53:46.783Z,68.74
2023-02-24T16:56:15.316Z,68.59
2023-02-24T16:58:43.057Z,68.54
2023-02-24T17:01:18.256Z,67.73
2023-02-24T17:03:49.704Z,68.04
2023-02-24T17:06:18.058Z,67.98
2023-02-24T17:08:47.165Z,67.54
2023-02-24T17:11:16.776Z,67.39
2023-02-24T17:13:44.669Z,68.18
2023-02-24T17:16:12.951Z,67.53
2023-02-24T17:18:40.736Z,66.60
2023-02-24T17:21:13.389Z,66.07
2023-02-24T17:23:42.523Z,65.16
2023-02-24T17:26:14.444Z,64.50
2023-02-24T17:28:42.237Z,63.89
2023-02-24T17:31:10.083Z,63.73
2023-02-24T17:33:37.860Z,63.01
2023-02-24T17:36:05.800Z,62.98
2023-02-24T17:38:34.899Z,62.07
2023-02-24T17:41:02.629Z,61.45
2023-02-24T17:43:30.396Z,61.84
2023-02-24T17:45:58.238Z,61.48
2023-02-24T17:48:26.007Z,60.83
2023-02-24T17:50:53.863Z,60.84
2023-02-24T17:53:21.606Z,60.86
2023-02-24T17:56:02.350Z,60.97
2023-02-24T17:58:31.022Z,60.63
2023-02-24T18:00:58.813Z,61.37
2023-02-24T18:03:26.599Z,61.20
2023-02-24T18:05:59.501Z,61.46
2023-02-24T18:08:27.333Z,62.08
2023-02-24T18:10:56.404Z,62.02
2023-02-24T18:13:24.168Z,62.17
2023-02-24T18:15:52.049Z,62.78
2023-02-24T18:18:19.933Z,62.44
2023-02-24T18:20:47.614Z,62.46
2023-02-24T18:23:15.865Z,61.99
2023-02-24T18:25:43.605Z,61.71
2023-02-24T18:28:12.696Z,61.72
2023-02-24T18:30:41.072Z,61.64
2023-02-24T18:33:09.002Z,61.06
2023-02-24T18:35:38.721Z,60.97
2023-02-24T18:38:07.019Z,60.51
2023-02-24T18:40:34.783Z,60.47
2023-02-24T18:43:02.774Z,60.48
2023-02-24T18:45:32.471Z,60.76
2023-02-24T18:48:04.804Z,61.33
2023-02-24T18:50:33.758Z,62.15
2023-02-24T18:53:01.517Z,62.07
2023-02-24T18:55:29.886Z,62.56
2023-02-24T18:57:57.624Z,63.26
2023-02-24T19:00:25.412Z,63.23
2023-02-24T19:02:54.467Z,63.87
2023-02-24T19:05:22.310Z,64.38
2023-02-24T19:07:50.031Z,64.30
2023-02-24T19:10:18.554Z,64.86
2023-02-24T19:12:47.108Z,65.12
2023-02-24T19:15:15.031Z,65.37
2023-02-24T19:17:42.807Z,64.83
2023-02-24T19:20:14.829Z,64.38
2023-02-24T19:22:42.660Z,64.70
2023-02-24T19:25:10.643Z,63.15
2023-02-24T19:27:38.970Z,62.67
2023-02-24T19:30:08.001Z,61.98
2023-02-24T19:32:35.867Z,61.40
2023-02-24T19:35:03.833Z,61.57
2023-02-24T19:37:32.977Z,61.48
2023-02-24T19:40:00.787Z,62.12
2023-02-24T19:42:29.157Z,62.54
2023-02-24T19:44:56.841Z,62.96
2023-02-24T19:47:24.564Z,62.51
2023-02-24T19:49:52.312Z,62.76
2023-02-24T19:52:20.016Z,63.58
2023-02-24T19:54:49.098Z,62.63
2023-02-24T19:57:16.839Z,62.99
2023-02-24T19:59:45.429Z,62.93
2023-02-24T20:02:13.172Z,63.40
2023-02-24T20:04:41.097Z,63.59
2023-02-24T20:07:08.943Z,62.75
2023-02-24T20:09:36.610Z,62.88
2023-02-24T20:12:05.869Z,62.77
2023-02-24T20:14:33.566Z,62.50
2023-02-24T20:17:01.584Z,63.27
2023-02-24T20:19:29.484Z,63.25
2023-02-24T20:21:57.220Z,63.13
2023-02-24T20:24:24.964Z,62.71
2023-02-24T20:26:52.742Z,63.23
2023-02-24T20:29:23.078Z,63.04
2023-02-24T20:31:51.188Z,62.67
2023-02-24T20:34:19.074Z,62.38
2023-02-24T20:36:46.817Z,62.40
2023-02-24T20:39:14.599Z,62.57
2023-02-24T20:41:42.312Z,63.06
2023-02-24T20:44:10.555Z,63.53
2023-02-24T20:46:39.788Z,63.24
2023-02-24T20:49:10.294Z,63.84
2023-02-24T20:51:38.704Z,63.47
2023-02-24T20:54:07.138Z,63.76
2023-02-24T20:56:37.268Z,63.58
2023-02-24T20:59:08.081Z,63.27
2023-02-24T21:01:36.558Z,62.91
2023-02-24T21:04:06.395Z,63.29
2023-02-24T21:06:34.635Z,63.85
2023-02-24T21:09:02.488Z,63.98
2023-02-24T21:11:30.817Z,63.07
2023-02-24T21:13:59.430Z,63.21
2023-02-24T21:16:27.878Z,63.57
2023-02-24T21:18:57.974Z,64.05
2023-02-24T21:21:27.509Z,63.48
2023-02-24T21:23:55.809Z,63.59
2023-02-24T21:26:26.940Z,62.95
2023-02-24T21:28:57.650Z,62.64
2023-02-24T21:31:26.258Z,62.58
2023-02-24T21:33:54.460Z,62.71
2023-02-24T21:36:25.532Z,63.51
2023-02-24T21:38:55.843Z,63.56
2023-02-24T21:41:24.386Z,63.08
2023-02-24T21:43:56.254Z,63.03
2023-02-24T21:46:28.377Z,62.84
2023-02-24T21:48:57.557Z,63.53
2023-02-24T21:51:26.388Z,62.95
2023-02-24T21:53:56.049Z,62.44
2023-02-24T21:56:25.375Z,62.94
2023-02-24T21:58:55.420Z,62.88
2023-02-24T22:01:26.937Z,62.46
2023-02-24T22:03:55.173Z,62.21
2023-02-24T22:06:23.246Z,62.23
2023-02-24T22:08:51.142Z,62.68
2023-02-24T22:11:20.456Z,62.24
2023-02-24T22:13:48.772Z,63.10
2023-02-24T22:16:19.012Z,62.83
2023-02-24T22:18:47.949Z,62.86
2023-02-24T22:21:18.100Z,62.44
2023-02-24T22:23:46.979Z,62.72
2023-02-24T22:26:16.690Z,62.40
2023-02-24T22:28:47.759Z,62.61
2023-02-24T22:31:17.938Z,62.66
2023-02-24T22:33:46.292Z,63.03
2023-02-24T22:36:16.290Z,62.66
2023-02-24T22:38:45.610Z,62.67
2023-02-24T22:41:15.951Z,62.36
2023-02-24T22:43:45.306Z,62.34
2023-02-24T22:46:15.103Z,62.61
2023-02-24T22:48:43.141Z,62.89
2023-02-24T22:51:12.483Z,62.67
2023-02-24T22:53:42.637Z,62.78
2023-02-24T22:56:12.829Z,62.33
2023-02-24T22:58:40.903Z,62.61
2023-02-24T23:01:11.954Z,62.78
2023-02-24T23:03:40.188Z,62.45
2023-02-24T23:06:10.022Z,62.21
2023-02-24T23:08:39.571Z,62.19
2023-02-24T23:11:10.860Z,62.37
2023-02-24T23:13:39.863Z,62.38
2023-02-24T23:16:09.612Z,62.08
2023-02-24T23:18:38.979Z,62.48
2023-02-24T23:21:09.142Z,61.87
2023-02-24T23:23:37.592Z,62.15
2023-02-24T23:26:06.237Z,61.87
2023-02-24T23:28:34.011Z,62.48
2023-02-24T23:31:01.892Z,62.71
2023-02-24T23:33:29.987Z,62.63
2023-02-24T23:36:04.366Z,62.67
2023-02-24T23:38:32.941Z,62.93
2023-02-24T23:41:01.142Z,62.74
2023-02-24T23:43:28.871Z,62.93
2023-02-24T23:45:56.963Z,62.78
2023-02-24T23:48:24.720Z,63.34
2023-02-24T23:50:57.044Z,62.29
2023-02-24T23:53:26.350Z,63.04
2023-02-24T23:55:54.087Z,62.87
2023-02-24T23:58:21.788Z,63.08
